createdAt,value
2018-03-04T00:00:47.877Z,2.90
2018-03-04T00:03:15.387Z,3.00
2018-03-04T00:05:42.937Z,2.50
2018-03-04T00:08:10.453Z,2.70
2018-03-04T00:10:38.741Z,3.00
2018-03-04T00:13:06.256Z,2.90
2018-03-04T00:15:33.797Z,3.00
2018-03-04T00:18:01.318Z,3.00
2018-03-04T00:20:28.859Z,2.40
2018-03-04T00:22:57.157Z,2.50
2018-03-04T00:25:24.706Z,2.60
2018-03-04T00:27:52.982Z,2.70
2018-03-04T00:30:21.292Z,2.80
2018-03-04T00:32:48.803Z,2.70
2018-03-04T00:35:16.327Z,2.60
2018-03-04T00:37:43.876Z,2.70
2018-03-04T00:40:11.391Z,2.80
2018-03-04T00:42:39.685Z,2.50
2018-03-04T00:45:07.960Z,2.40
2018-03-04T00:47:36.318Z,2.70
2018-03-04T00:50:03.840Z,2.70
2018-03-04T00:52:31.374Z,2.70
2018-03-04T00:54:58.893Z,2.40
2018-03-04T00:57:26.423Z,2.70
2018-03-04T00:59:53.935Z,2.70
2018-03-04T01:02:22.265Z,2.40
2018-03-04T01:04:49.786Z,2.70
2018-03-04T01:07:17.323Z,2.40
2018-03-04T01:09:45.619Z,2.60
2018-03-04T01:12:13.904Z,2.70
2018-03-04T01:14:41.433Z,2.70
2018-03-04T01:17:08.940Z,2.60
2018-03-04T01:19:36.473Z,2.40
2018-03-04T01:22:04.747Z,2.20
2018-03-04T01:24:33.039Z,2.40
2018-03-04T01:27:00.556Z,2.20
2018-03-04T01:29:28.088Z,2.70
2018-03-04T01:31:55.622Z,2.40
2018-03-04T01:34:23.175Z,2.70
2018-03-04T01:36:50.702Z,2.20
2018-03-04T01:39:18.223Z,2.40
2018-03-04T01:41:45.782Z,2.50
2018-03-04T01:44:13.348Z,2.40
2018-03-04T01:46:40.897Z,2.30
2018-03-04T01:49:08.408Z,2.40
2018-03-04T01:51:47.760Z,2.20
2018-03-04T01:54:16.052Z,2.10
2018-03-04T01:56:43.595Z,2.40
2018-03-04T01:59:11.879Z,2.10
2018-03-04T02:01:40.175Z,2.20
2018-03-04T02:04:07.683Z,2.20
2018-03-04T02:06:35.230Z,2.10
2018-03-04T02:09:02.745Z,2.20
2018-03-04T02:11:30.291Z,2.10
2018-03-04T02:13:58.584Z,2.20
2018-03-04T02:16:26.103Z,2.30
2018-03-04T02:18:53.672Z,2.10
2018-03-04T02:21:21.196Z,2.40
2018-03-04T02:23:48.724Z,1.90
2018-03-04T02:26:16.276Z,1.90
2018-03-04T02:28:44.621Z,1.90
2018-03-04T02:31:12.144Z,2.30
2018-03-04T02:33:39.687Z,2.20
2018-03-04T02:36:07.205Z,1.90
2018-03-04T02:38:34.750Z,2.10
2018-03-04T02:41:02.261Z,1.90
2018-03-04T02:43:29.798Z,2.20
2018-03-04T02:45:58.102Z,2.00
2018-03-04T02:48:25.666Z,1.90
2018-03-04T02:50:53.180Z,2.10
2018-03-04T02:53:20.709Z,2.10
2018-03-04T02:55:48.240Z,1.90
2018-03-04T02:58:15.770Z,1.90
2018-03-04T03:00:43.327Z,1.90
2018-03-04T03:03:10.841Z,1.80
2018-03-04T03:05:38.374Z,1.90
2018-03-04T03:08:06.678Z,1.80
2018-03-04T03:10:34.226Z,1.90
2018-03-04T03:13:01.750Z,2.10
2018-03-04T03:15:29.279Z,1.90
2018-03-04T03:17:56.800Z,1.80
2018-03-04T03:20:24.332Z,1.80
2018-03-04T03:22:51.846Z,1.90
2018-03-04T03:25:19.395Z,1.90
2018-03-04T03:27:46.914Z,1.90
2018-03-04T03:30:15.207Z,1.60
2018-03-04T03:32:43.510Z,1.90
2018-03-04T03:35:11.036Z,1.70
2018-03-04T03:37:39.339Z,2.10
2018-03-04T03:40:06.865Z,1.80
2018-03-04T03:42:34.398Z,1.60
2018-03-04T03:45:01.903Z,2.00
2018-03-04T03:47:30.196Z,1.70
2018-03-04T03:49:57.714Z,1.60
2018-03-04T03:52:25.240Z,1.60
2018-03-04T03:54:52.746Z,1.70
2018-03-04T03:57:21.071Z,1.60
2018-03-04T03:59:48.996Z,1.60
2018-03-04T04:02:17.274Z,1.70
2018-03-04T04:04:45.569Z,1.60
2018-03-04T04:07:13.843Z,1.70
2018-03-04T04:09:42.135Z,1.70
2018-03-04T04:12:09.665Z,1.80
2018-03-04T04:14:37.969Z,1.60
2018-03-04T04:17:05.492Z,1.80
2018-03-04T04:19:33.029Z,1.60
2018-03-04T04:22:00.540Z,1.70
2018-03-04T04:24:28.831Z,1.60
2018-03-04T04:26:56.339Z,1.80
2018-03-04T04:29:23.900Z,1.80
2018-03-04T04:31:51.408Z,1.60
2018-03-04T04:34:18.916Z,1.50
2018-03-04T04:36:46.444Z,1.60
2018-03-04T04:39:14.337Z,1.50
2018-03-04T04:41:41.865Z,1.60
2018-03-04T04:44:09.389Z,1.70
2018-03-04T04:46:36.939Z,1.50
2018-03-04T04:49:04.452Z,1.40
2018-03-04T04:51:31.995Z,1.40
2018-03-04T04:53:59.539Z,1.70
2018-03-04T04:56:27.861Z,1.80
2018-03-04T04:58:55.380Z,1.40
2018-03-04T05:01:23.664Z,1.40
2018-03-04T05:03:51.950Z,1.30
2018-03-04T05:06:20.338Z,1.60
2018-03-04T05:08:47.879Z,1.70
2018-03-04T05:11:15.404Z,1.40
2018-03-04T05:13:42.939Z,1.40
2018-03-04T05:16:10.461Z,1.30
2018-03-04T05:18:37.996Z,1.40
2018-03-04T05:21:05.513Z,1.40
2018-03-04T05:23:33.057Z,1.60
2018-03-04T05:26:00.567Z,1.30
2018-03-04T05:28:28.116Z,1.40
2018-03-04T05:30:55.626Z,1.30
2018-03-04T05:33:23.983Z,1.40
2018-03-04T05:35:52.400Z,1.40
2018-03-04T05:38:19.907Z,1.30
2018-03-04T05:40:47.439Z,1.40
2018-03-04T05:43:14.998Z,1.40
2018-03-04T05:45:42.527Z,1.40
2018-03-04T05:48:10.035Z,1.40
2018-03-04T05:50:37.563Z,1.30
2018-03-04T05:53:05.080Z,1.30
2018-03-04T05:55:33.427Z,1.40
2018-03-04T05:58:00.943Z,1.30
2018-03-04T06:00:28.486Z,1.40
2018-03-04T06:02:56.788Z,1.30
2018-03-04T06:05:24.332Z,1.40
2018-03-04T06:07:52.611Z,1.30
2018-03-04T06:10:20.921Z,1.60
2018-03-04T06:12:48.427Z,1.60
2018-03-04T06:15:16.724Z,1.50
2018-03-04T06:17:45.006Z,1.60
2018-03-04T06:20:12.535Z,1.40
2018-03-04T06:22:40.052Z,1.60
2018-03-04T06:25:07.604Z,1.70
2018-03-04T06:27:35.115Z,1.80
2018-03-04T06:30:02.780Z,1.80
2018-03-04T06:32:30.304Z,1.60
2018-03-04T06:34:57.820Z,1.60
2018-03-04T06:37:26.133Z,1.60
2018-03-04T06:39:53.644Z,1.60
2018-03-04T06:42:21.959Z,1.70
2018-03-04T06:44:49.482Z,1.80
2018-03-04T06:47:17.787Z,1.80
2018-03-04T06:49:45.317Z,2.00
2018-03-04T06:52:13.644Z,1.80
2018-03-04T06:54:42.244Z,1.90
2018-03-04T06:57:09.788Z,1.90
2018-03-04T06:59:37.295Z,1.90
2018-03-04T07:02:04.829Z,1.90
2018-03-04T07:04:32.363Z,1.90
2018-03-04T07:06:59.899Z,2.10
2018-03-04T07:09:28.182Z,2.10
2018-03-04T07:11:55.736Z,2.10
2018-03-04T07:14:24.045Z,2.40
2018-03-04T07:16:51.563Z,2.40
2018-03-04T07:19:19.873Z,2.20
2018-03-04T07:21:47.401Z,2.20
2018-03-04T07:24:15.711Z,2.40
2018-03-04T07:26:43.223Z,2.40
2018-03-04T07:29:10.755Z,2.70
2018-03-04T07:31:38.267Z,2.40
2018-03-04T07:34:06.556Z,2.90
2018-03-04T07:36:34.067Z,2.40
2018-03-04T07:39:01.614Z,2.60
2018-03-04T07:41:29.157Z,3.00
